createdAt,value
2022-09-15T00:01:04.099Z,96276.88
2022-09-15T00:03:32.208Z,96283.25
2022-09-15T00:06:01.708Z,96293.84
2022-09-15T00:08:29.892Z,96284.06
2022-09-15T00:10:59.087Z,96280.56
2022-09-15T00:13:27.175Z,96307.44
2022-09-15T00:15:55.240Z,96295.81
2022-09-15T00:18:23.275Z,96300.34
2022-09-15T00:20:51.362Z,96282.38
2022-09-15T00:23:20.900Z,96269.81
2022-09-15T00:25:51.286Z,96265.41
2022-09-15T00:28:21.445Z,96245.63
2022-09-15T00:30:50.634Z,96233.13
2022-09-15T00:33:19.116Z,96231.31
2022-09-15T00:35:50.353Z,96221.56
2022-09-15T00:38:18.764Z,96215.19
2022-09-15T00:40:49.459Z,96227.75
2022-09-15T00:43:17.923Z,96243.06
2022-09-15T00:45:46.047Z,96242.06
2022-09-15T00:48:15.672Z,96244.03
2022-09-15T00:50:44.684Z,96241.19
2022-09-15T00:53:12.784Z,96242.19
2022-09-15T00:55:43.433Z,96237.69
2022-09-15T00:58:14.107Z,96248.44
2022-09-15T01:00:45.235Z,96245.75
2022-09-15T01:03:14.004Z,96246.56
2022-09-15T01:05:43.969Z,96250.25
2022-09-15T01:08:12.933Z,96248.44
2022-09-15T01:10:41.983Z,96254.66
2022-09-15T01:13:13.840Z,96260.16
2022-09-15T01:15:47.504Z,96261.16
2022-09-15T01:18:18.183Z,96260.16
2022-09-15T01:21:05.836Z,96268.22
2022-09-15T01:24:15.224Z,96261.97
2022-09-15T01:26:59.715Z,96257.59
2022-09-15T01:29:49.211Z,96256.75
2022-09-15T01:32:37.489Z,96262.97
2022-09-15T01:35:14.272Z,96259.56
2022-09-15T01:37:44.848Z,96261.25
2022-09-15T01:40:13.151Z,96272.00
2022-09-15T01:42:41.288Z,96287.31
2022-09-15T01:45:12.324Z,96277.38
2022-09-15T01:47:40.396Z,96270.31
2022-09-15T01:50:10.696Z,96276.56
2022-09-15T01:52:38.904Z,96271.19
2022-09-15T01:55:09.056Z,96263.94
2022-09-15T01:57:37.169Z,96260.44
2022-09-15T02:00:06.293Z,96256.88
2022-09-15T02:02:37.889Z,96254.19
2022-09-15T02:05:07.679Z,96261.25
2022-09-15T02:07:38.175Z,96270.31
2022-09-15T02:10:11.582Z,96268.50
2022-09-15T02:12:42.344Z,96258.72
2022-09-15T02:15:11.894Z,96266.78
2022-09-15T02:17:42.868Z,96269.47
2022-09-15T02:20:15.610Z,96264.94
2022-09-15T02:22:44.588Z,96257.84
2022-09-15T02:25:13.846Z,96263.13
2022-09-15T02:27:45.047Z,96269.47
2022-09-15T02:30:14.463Z,96262.41
2022-09-15T02:32:48.203Z,96265.91
2022-09-15T02:35:16.308Z,96250.78
2022-09-15T02:37:44.372Z,96253.47
2022-09-15T02:40:12.564Z,96242.72
2022-09-15T02:42:40.902Z,96253.34
2022-09-15T02:45:10.402Z,96234.66
2022-09-15T02:47:38.484Z,96231.97
2022-09-15T02:50:09.136Z,96232.94
2022-09-15T02:52:37.386Z,96234.66
2022-09-15T02:55:05.916Z,96242.72
2022-09-15T02:57:34.089Z,96257.13
2022-09-15T03:00:14.627Z,96257.13
2022-09-15T03:02:42.912Z,96261.53
2022-09-15T03:05:13.115Z,96257.13
2022-09-15T03:07:41.507Z,96249.06
2022-09-15T03:10:10.463Z,96253.63
2022-09-15T03:12:39.284Z,96256.31
2022-09-15T03:15:08.876Z,96259.00
2022-09-15T03:17:37.132Z,96264.38
2022-09-15T03:20:05.559Z,96259.00
2022-09-15T03:22:35.071Z,96252.75
2022-09-15T03:25:04.908Z,96236.63
2022-09-15T03:27:33.152Z,96244.69
2022-09-15T03:30:01.588Z,96241.16
2022-09-15T03:32:29.705Z,96247.38
2022-09-15T03:34:58.464Z,96226.84
2022-09-15T03:37:26.942Z,96231.25
2022-09-15T03:39:56.438Z,96218.78
2022-09-15T03:42:24.577Z,96225.03
2022-09-15T03:44:53.117Z,96216.97
2022-09-15T03:47:21.240Z,96210.72
2022-09-15T03:49:49.297Z,96216.09
2022-09-15T03:52:17.428Z,96211.72
2022-09-15T03:54:45.440Z,96217.09
2022-09-15T03:57:14.963Z,96213.41
2022-09-15T03:59:43.033Z,96215.28
2022-09-15T04:02:11.307Z,96212.59
2022-09-15T04:04:39.424Z,96213.41
2022-09-15T04:07:08.847Z,96217.09
2022-09-15T04:09:37.708Z,96214.41
2022-09-15T04:12:06.882Z,96209.03
2022-09-15T04:14:36.332Z,96209.03
2022-09-15T04:17:04.617Z,96204.63
2022-09-15T04:19:32.747Z,96198.28
2022-09-15T04:22:00.780Z,96194.75
2022-09-15T04:24:28.837Z,96191.19
2022-09-15T04:26:56.889Z,96176.78
2022-09-15T04:29:25.000Z,96171.41
2022-09-15T04:31:54.562Z,96184.13
2022-09-15T04:34:22.812Z,96195.75
2022-09-15T04:36:50.856Z,96217.25
2022-09-15T04:39:19.689Z,96231.50
2022-09-15T04:41:47.734Z,96221.63
2022-09-15T04:44:15.811Z,96222.63
2022-09-15T04:46:43.907Z,96225.28
2022-09-15T04:49:13.355Z,96246.78
2022-09-15T04:51:41.420Z,96264.75
2022-09-15T04:54:09.499Z,96262.06
2022-09-15T04:56:37.569Z,96266.44
2022-09-15T04:59:05.664Z,96275.50
2022-09-15T05:01:35.138Z,96269.25
2022-09-15T05:04:04.326Z,96254.97
2022-09-15T05:06:34.798Z,96271.94
2022-09-15T05:09:07.648Z,96284.53
2022-09-15T05:11:38.004Z,96277.31
2022-09-15T05:14:06.064Z,96284.41
2022-09-15T05:16:34.202Z,96273.66
2022-09-15T05:19:03.027Z,96293.31
2022-09-15T05:21:31.128Z,96300.41
2022-09-15T05:24:00.604Z,96288.78
2022-09-15T05:26:29.335Z,96284.41
2022-09-15T05:28:57.657Z,96302.50
2022-09-15T05:31:26.751Z,96310.94
2022-09-15T05:33:54.941Z,96315.59
2022-09-15T05:36:25.252Z,96311.06
2022-09-15T05:38:54.731Z,96290.56
2022-09-15T05:41:24.252Z,96296.78
2022-09-15T05:43:52.496Z,96291.41
2022-09-15T05:46:20.769Z,96303.13
2022-09-15T05:48:48.976Z,96304.25
2022-09-15T05:51:17.075Z,96316.97
2022-09-15T05:53:45.218Z,96313.66
2022-09-15T05:56:14.909Z,96321.84
2022-09-15T05:58:45.110Z,96311.25
2022-09-15T06:01:14.392Z,96319.44
2022-09-15T06:03:42.493Z,96310.66
2022-09-15T06:06:10.690Z,96313.34
2022-09-15T06:08:43.887Z,96314.31
2022-09-15T06:11:13.277Z,96310.75
2022-09-15T06:13:41.327Z,96306.50
2022-09-15T06:16:12.027Z,96307.47
2022-09-15T06:18:40.536Z,96316.41
2022-09-15T06:21:10.212Z,96329.69
2022-09-15T06:23:38.503Z,96332.25
2022-09-15T06:26:08.037Z,96332.25
2022-09-15T06:28:36.362Z,96317.13
2022-09-15T06:31:04.627Z,96323.47
2022-09-15T06:33:34.144Z,96326.13
2022-09-15T06:36:03.657Z,96324.44
2022-09-15T06:38:31.729Z,96323.59
2022-09-15T06:40:59.991Z,96316.53
2022-09-15T06:43:28.032Z,96320.31
2022-09-15T06:46:04.050Z,96314.22
2022-09-15T06:48:33.632Z,96326.78
2022-09-15T06:51:01.901Z,96327.78
2022-09-15T06:53:31.150Z,96319.81
2022-09-15T06:56:03.313Z,96316.31
2022-09-15T06:58:31.521Z,96315.44
2022-09-15T07:01:02.568Z,96311.91
2022-09-15T07:03:30.885Z,96301.16
2022-09-15T07:06:00.414Z,96295.78
2022-09-15T07:08:28.476Z,96297.59
2022-09-15T07:10:56.696Z,96291.28
2022-09-15T07:13:25.112Z,96300.78
2022-09-15T07:15:53.427Z,96293.44
2022-09-15T07:18:21.805Z,96297.72
2022-09-15T07:20:49.941Z,96292.34
2022-09-15T07:23:19.599Z,96298.56
2022-09-15T07:25:48.123Z,96294.03
2022-09-15T07:28:16.259Z,96301.13
2022-09-15T07:30:44.748Z,96301.97
2022-09-15T07:33:14.553Z,96294.91
2022-09-15T07:35:42.953Z,96285.03
2022-09-15T07:38:11.268Z,96279.50
2022-09-15T07:40:40.732Z,96271.47
2022-09-15T07:43:08.839Z,96282.94
2022-09-15T07:45:37.304Z,96290.84
2022-09-15T07:48:06.432Z,96289.03
2022-09-15T07:50:34.542Z,96283.66
2022-09-15T07:53:02.616Z,96283.66
2022-09-15T07:55:31.275Z,96278.28
2022-09-15T07:58:01.097Z,96274.59
2022-09-15T08:00:29.350Z,96273.75
2022-09-15T08:02:57.655Z,96272.91
2022-09-15T08:05:28.085Z,96267.53
2022-09-15T08:07:56.779Z,96264.84
2022-09-15T08:10:25.811Z,96267.41
2022-09-15T08:12:54.132Z,96274.34
2022-09-15T08:15:23.616Z,96274.34
2022-09-15T08:17:51.676Z,96275.22
2022-09-15T08:20:19.762Z,96273.50
2022-09-15T08:22:48.182Z,96268.84
2022-09-15T08:25:16.332Z,96261.66
2022-09-15T08:27:44.359Z,96257.13
2022-09-15T08:30:13.728Z,96264.34
2022-09-15T08:32:43.141Z,96268.59
2022-09-15T08:35:11.276Z,96262.22
2022-09-15T08:37:42.475Z,96266.50
2022-09-15T08:40:14.627Z,96252.06
2022-09-15T08:42:44.952Z,96254.66
2022-09-15T08:45:19.332Z,96254.66
2022-09-15T08:47:49.064Z,96254.50
2022-09-15T08:50:22.959Z,96248.16
2022-09-15T08:52:52.476Z,96250.81
2022-09-15T08:55:22.699Z,96242.78
2022-09-15T08:57:52.119Z,96249.00
2022-09-15T09:00:20.222Z,96236.56
2022-09-15T09:03:03.143Z,96217.63
2022-09-15T09:05:49.787Z,96221.03
2022-09-15T09:08:53.420Z,96211.25
2022-09-15T09:11:25.429Z,96200.38
2022-09-15T09:13:56.564Z,96188.63
2022-09-15T09:16:41.956Z,96187.69
2022-09-15T09:19:32.168Z,96184.00
2022-09-15T09:22:03.441Z,96182.16
2022-09-15T09:24:35.626Z,96202.66
2022-09-15T09:27:03.704Z,96206.06
2022-09-15T09:29:33.573Z,96211.19
2022-09-15T09:32:01.748Z,96218.97
2022-09-15T09:34:33.708Z,96208.81
2022-09-15T09:37:02.623Z,96206.72
2022-09-15T09:39:30.639Z,96206.59
2022-09-15T09:41:59.211Z,96202.66
2022-09-15T09:44:31.903Z,96192.75
2022-09-15T09:47:00.534Z,96196.28
2022-09-15T09:49:29.040Z,96201.53
2022-09-15T09:52:00.021Z,96210.38
2022-09-15T09:54:28.761Z,96215.47
2022-09-15T09:56:57.972Z,96213.25
2022-09-15T09:59:34.543Z,96226.25
2022-09-15T10:02:07.260Z,96220.78
2022-09-15T10:04:35.458Z,96212.56
2022-09-15T10:07:05.036Z,96205.34
2022-09-15T10:09:33.586Z,96216.84
2022-09-15T10:12:02.247Z,96209.59
2022-09-15T10:14:31.185Z,96206.91
2022-09-15T10:17:00.654Z,96206.78
2022-09-15T10:19:29.061Z,96212.03
2022-09-15T10:22:00.096Z,96206.66
2022-09-15T10:24:34.906Z,96218.28
2022-09-15T10:27:19.564Z,96204.94
2022-09-15T10:29:47.850Z,96197.88
2022-09-15T10:32:25.394Z,96191.63
2022-09-15T10:35:08.300Z,96183.69
2022-09-15T10:37:39.219Z,96185.53
2022-09-15T10:40:22.630Z,96192.88
2022-09-15T10:42:52.152Z,96205.47
2022-09-15T10:45:26.827Z,96204.63
2022-09-15T10:48:07.147Z,96208.31
2022-09-15T10:50:41.723Z,96214.69
2022-09-15T10:53:15.608Z,96226.41
2022-09-15T10:55:53.267Z,96242.69
2022-09-15T10:58:39.889Z,96278.50
2022-09-15T11:01:18.354Z,96283.97
2022-09-15T11:03:57.163Z,96283.00
2022-09-15T11:06:25.867Z,96286.66
2022-09-15T11:09:00.929Z,96266.00
2022-09-15T11:11:34.772Z,96258.09
2022-09-15T11:14:11.286Z,96254.53
2022-09-15T11:16:46.322Z,96251.00
2022-09-15T11:19:26.087Z,96242.09
2022-09-15T11:21:54.965Z,96249.16
2022-09-15T11:24:27.973Z,96261.75
2022-09-15T11:26:58.184Z,96258.22
2022-09-15T11:29:28.038Z,96262.59
2022-09-15T11:31:58.309Z,96257.38
2022-09-15T11:34:27.607Z,96243.06
2022-09-15T11:36:57.904Z,96236.00
2022-09-15T11:39:29.037Z,96218.00
2022-09-15T11:42:01.119Z,96209.13
2022-09-15T11:44:30.679Z,96216.19
2022-09-15T11:47:07.833Z,96209.94
2022-09-15T11:49:40.063Z,96203.59
2022-09-15T11:52:12.595Z,96196.50
2022-09-15T11:54:42.685Z,96184.78
2022-09-15T11:57:16.715Z,96154.19
2022-09-15T11:59:46.707Z,96156.06
2022-09-15T12:02:20.121Z,96163.25
2022-09-15T12:04:59.015Z,96172.19
2022-09-15T12:07:29.048Z,96182.09
2022-09-15T12:09:57.165Z,96184.78
2022-09-15T12:12:30.643Z,96172.19
2022-09-15T12:14:59.444Z,96161.44
2022-09-15T12:17:31.039Z,96161.44
2022-09-15T12:20:01.178Z,96155.19
2022-09-15T12:22:32.116Z,96145.41
2022-09-15T12:25:01.549Z,96151.66
2022-09-15T12:27:31.302Z,96154.34
2022-09-15T12:29:59.867Z,96154.34
2022-09-15T12:32:28.893Z,96151.66
2022-09-15T12:35:04.218Z,96149.81
2022-09-15T12:37:36.712Z,96143.59
2022-09-15T12:40:07.003Z,96139.06
2022-09-15T12:42:37.104Z,96143.59
2022-09-15T12:45:06.166Z,96132.84
2022-09-15T12:47:35.665Z,96126.59
2022-09-15T12:50:09.992Z,96099.72
2022-09-15T12:52:44.549Z,96110.47
2022-09-15T12:55:19.249Z,96116.69
2022-09-15T12:57:53.384Z,96130.13
2022-09-15T13:00:35.575Z,96125.75
2022-09-15T13:03:04.104Z,96124.91
2022-09-15T13:06:17.511Z,96128.47
2022-09-15T13:09:19.403Z,96124.91
2022-09-15T13:11:48.628Z,96142.88
2022-09-15T13:14:26.262Z,96146.56
2022-09-15T13:16:56.711Z,96150.06
2022-09-15T13:19:29.017Z,96160.00
2022-09-15T13:22:02.861Z,96165.25
2022-09-15T13:24:40.929Z,96172.44
2022-09-15T13:27:09.041Z,96169.91
2022-09-15T13:29:44.522Z,96161.84
2022-09-15T13:32:26.076Z,96165.38
2022-09-15T13:35:29.139Z,96157.31
2022-09-15T13:38:27.603Z,96160.97
2022-09-15T13:41:43.609Z,96157.41
2022-09-15T13:44:30.551Z,96146.56
2022-09-15T13:47:18.494Z,96155.59
2022-09-15T13:49:49.665Z,96143.16
2022-09-15T13:52:24.979Z,96142.16
2022-09-15T13:55:10.147Z,96147.53
2022-09-15T14:00:30.808Z,96143.97
2022-09-15T14:03:01.350Z,96146.66
2022-09-15T14:05:31.599Z,96143.16
2022-09-15T14:08:01.759Z,96140.47
2022-09-15T14:10:31.711Z,96137.78
2022-09-15T14:13:00.582Z,96140.47
2022-09-15T14:15:29.348Z,96149.34
2022-09-15T14:17:57.364Z,96161.97
2022-09-15T14:20:28.924Z,96151.22
2022-09-15T14:22:57.651Z,96157.41
2022-09-15T14:25:25.704Z,96150.22
2022-09-15T14:27:54.617Z,96143.97
2022-09-15T14:30:24.044Z,96144.97
2022-09-15T14:32:54.012Z,96152.03
2022-09-15T14:35:24.930Z,96154.88
2022-09-15T14:37:56.667Z,96152.19
2022-09-15T14:40:28.571Z,96148.53
2022-09-15T14:42:56.773Z,96156.44
2022-09-15T14:48:16.290Z,96153.63
2022-09-15T14:50:44.744Z,96163.41
2022-09-15T14:53:16.404Z,96160.72
2022-09-15T14:55:50.429Z,96149.09
2022-09-15T14:58:21.384Z,96145.56
2022-09-15T15:00:54.531Z,96141.91
2022-09-15T15:03:27.245Z,96135.66
2022-09-15T15:06:02.695Z,96144.59
2022-09-15T15:08:35.613Z,96149.09
2022-09-15T15:11:03.753Z,96145.56
2022-09-15T15:13:33.988Z,96142.72
2022-09-15T15:16:02.716Z,96155.34
2022-09-15T15:18:33.365Z,96166.09
2022-09-15T15:21:01.614Z,96183.06
2022-09-15T15:23:29.713Z,96183.06
2022-09-15T15:26:26.892Z,96192.97
2022-09-15T15:28:54.991Z,96187.59
2022-09-15T15:31:23.666Z,96192.97
2022-09-15T15:33:55.844Z,96196.63
2022-09-15T15:36:24.996Z,96189.28
2022-09-15T15:38:54.773Z,96188.44
2022-09-15T15:41:24.027Z,96176.00
2022-09-15T15:44:03.260Z,96176.00
2022-09-15T15:46:48.078Z,96180.50
2022-09-15T15:49:16.268Z,96180.50
2022-09-15T15:51:44.784Z,96172.44
2022-09-15T15:54:12.911Z,96160.72
2022-09-15T15:56:40.964Z,96161.69
2022-09-15T15:59:12.890Z,96154.47
2022-09-15T16:01:41.050Z,96166.09
2022-09-15T16:04:09.132Z,96184.06
2022-09-15T16:06:37.271Z,96206.44
2022-09-15T16:09:05.436Z,96203.72
2022-09-15T16:11:34.041Z,96205.44
2022-09-15T16:14:02.076Z,96204.56
2022-09-15T16:16:31.797Z,96197.34
2022-09-15T16:18:59.913Z,96185.75
2022-09-15T16:21:32.589Z,96178.69
2022-09-15T16:24:00.808Z,96177.97
2022-09-15T16:26:28.855Z,96187.00
2022-09-15T16:29:00.005Z,96189.81
2022-09-15T16:31:28.358Z,96194.31
2022-09-15T16:33:57.967Z,96198.00
2022-09-15T16:36:26.737Z,96203.38
2022-09-15T16:38:54.843Z,96191.75
2022-09-15T16:41:25.533Z,96197.00
2022-09-15T16:43:55.820Z,96193.47
2022-09-15T16:46:24.016Z,96186.25
2022-09-15T16:48:52.145Z,96180.78
2022-09-15T16:51:28.733Z,96171.72
2022-09-15T16:54:01.021Z,96171.72
2022-09-15T16:56:29.708Z,96161.84
2022-09-15T16:59:01.843Z,96164.38
2022-09-15T17:01:30.453Z,96170.63
2022-09-15T17:03:58.798Z,96165.25
2022-09-15T17:06:28.403Z,96172.31
2022-09-15T17:08:56.764Z,96161.53
2022-09-15T17:11:25.554Z,96166.09
2022-09-15T17:13:53.962Z,96164.38
2022-09-15T17:16:22.300Z,96156.31
2022-09-15T17:18:50.429Z,96156.31
2022-09-15T17:21:18.565Z,96163.41
2022-09-15T17:23:48.744Z,96163.41
2022-09-15T17:26:19.785Z,96154.47
2022-09-15T17:28:47.993Z,96164.22
2022-09-15T17:31:17.745Z,96152.66
2022-09-15T17:33:45.856Z,96158.84
2022-09-15T17:36:13.873Z,96161.53
2022-09-15T17:38:42.186Z,96174.03
2022-09-15T17:41:14.087Z,96177.56
2022-09-15T17:43:42.283Z,96169.59
2022-09-15T17:46:10.577Z,96171.34
2022-09-15T17:48:39.133Z,96179.41
2022-09-15T17:51:07.530Z,96190.16
2022-09-15T17:53:35.616Z,96188.31
2022-09-15T17:56:03.880Z,96181.09
2022-09-15T17:58:33.432Z,96183.06
2022-09-15T18:01:01.516Z,96195.66
2022-09-15T18:03:30.847Z,96191.25
2022-09-15T18:06:00.094Z,96195.78
2022-09-15T18:08:28.189Z,96184.06
2022-09-15T18:10:56.253Z,96172.59
2022-09-15T18:13:26.919Z,96159.28
2022-09-15T18:15:56.534Z,96139.81
2022-09-15T18:18:25.316Z,96164.88
2022-09-15T18:20:54.127Z,96146.91
2022-09-15T18:23:23.372Z,96141.53
2022-09-15T18:25:51.636Z,96137.03
2022-09-15T18:28:19.832Z,96149.50
2022-09-15T18:30:48.926Z,96148.53
2022-09-15T18:33:19.819Z,96147.53
2022-09-15T18:35:48.008Z,96148.53
2022-09-15T18:38:16.374Z,96143.16
2022-09-15T18:40:49.020Z,96143.97
2022-09-15T18:43:17.153Z,96146.56
2022-09-15T18:45:45.396Z,96151.22
2022-09-15T18:48:13.582Z,96143.97
2022-09-15T18:50:43.071Z,96142.16
2022-09-15T18:53:11.123Z,96144.84
2022-09-15T18:55:41.291Z,96150.22
2022-09-15T18:58:09.484Z,96161.97
2022-09-15T19:00:37.593Z,96163.81
2022-09-15T19:03:06.864Z,96164.66
2022-09-15T19:05:35.015Z,96172.72
2022-09-15T19:08:04.810Z,96179.06
2022-09-15T19:10:32.852Z,96184.44
2022-09-15T19:13:00.927Z,96183.56
2022-09-15T19:15:31.329Z,96187.13
2022-09-15T19:17:59.453Z,96196.91
2022-09-15T19:20:27.567Z,96203.28
2022-09-15T19:22:55.644Z,96208.50
2022-09-15T19:25:25.157Z,96214.88
2022-09-15T19:27:53.251Z,96228.31
2022-09-15T19:30:21.445Z,96221.94
2022-09-15T19:32:49.525Z,96236.25
2022-09-15T19:35:17.625Z,96233.56
2022-09-15T19:37:47.242Z,96233.41
2022-09-15T19:40:15.440Z,96233.41
2022-09-15T19:42:45.101Z,96238.78
2022-09-15T19:45:13.405Z,96228.03
2022-09-15T19:47:41.529Z,96226.22
2022-09-15T19:50:09.970Z,96236.97
2022-09-15T19:52:38.055Z,96234.28
2022-09-15T19:55:06.928Z,96241.47
2022-09-15T19:57:35.051Z,96239.78
2022-09-15T20:00:04.978Z,96245.19
2022-09-15T20:02:33.079Z,96255.06
2022-09-15T20:05:01.164Z,96265.09
2022-09-15T20:07:29.220Z,96275.84
2022-09-15T20:09:58.863Z,96276.72
2022-09-15T20:12:27.567Z,96275.97
2022-09-15T20:14:55.636Z,96285.84
2022-09-15T20:17:25.128Z,96280.63
2022-09-15T20:19:53.248Z,96294.91
2022-09-15T20:22:21.325Z,96290.38
2022-09-15T20:24:49.643Z,96293.19
2022-09-15T20:27:17.720Z,96289.66
2022-09-15T20:29:45.805Z,96299.56
2022-09-15T20:32:13.856Z,96299.56
2022-09-15T20:34:43.332Z,96306.91
2022-09-15T20:37:11.786Z,96305.91
2022-09-15T20:39:40.471Z,96303.22
2022-09-15T20:42:08.639Z,96298.84
2022-09-15T20:44:36.944Z,96294.44
2022-09-15T20:47:05.181Z,96289.06
2022-09-15T20:49:33.348Z,96285.50
2022-09-15T20:52:03.116Z,96282.81
2022-09-15T20:54:31.228Z,96270.38
2022-09-15T20:57:00.097Z,96274.91
2022-09-15T20:59:28.191Z,96285.66
2022-09-15T21:01:56.269Z,96291.16
2022-09-15T21:04:24.397Z,96291.16
2022-09-15T21:06:52.456Z,96293.84
2022-09-15T21:09:21.964Z,96294.00
2022-09-15T21:11:53.338Z,96299.38
2022-09-15T21:14:21.860Z,96296.69
2022-09-15T21:16:50.019Z,96310.13
2022-09-15T21:19:18.140Z,96306.56
2022-09-15T21:21:46.249Z,96305.72
2022-09-15T21:24:14.293Z,96304.88
2022-09-15T21:26:57.764Z,96313.78
2022-09-15T21:29:26.436Z,96310.25
2022-09-15T21:31:55.756Z,96313.91
2022-09-15T21:34:24.117Z,96318.44
2022-09-15T21:36:53.701Z,96321.13
2022-09-15T21:39:21.896Z,96337.25
2022-09-15T21:41:51.336Z,96339.09
2022-09-15T21:44:19.401Z,96345.31
2022-09-15T21:46:47.826Z,96342.75
2022-09-15T21:49:18.049Z,96343.63
2022-09-15T21:51:46.145Z,96343.75
2022-09-15T21:54:14.799Z,96341.06
2022-09-15T21:56:42.900Z,96344.59
2022-09-15T21:59:12.692Z,96350.97
2022-09-15T22:01:41.625Z,96352.78
2022-09-15T22:04:10.365Z,96352.78
2022-09-15T22:06:40.606Z,96357.28
2022-09-15T22:09:09.950Z,96350.22
2022-09-15T22:11:38.030Z,96352.91
2022-09-15T22:14:08.213Z,96356.56
2022-09-15T22:16:38.631Z,96359.25
2022-09-15T22:19:07.556Z,96365.50
2022-09-15T22:21:37.040Z,96367.31
2022-09-15T22:24:06.988Z,96377.25
2022-09-15T22:26:36.477Z,96371.00
2022-09-15T22:29:04.682Z,96370.16
2022-09-15T22:31:32.795Z,96375.50
2022-09-15T22:34:02.266Z,96370.16
2022-09-15T22:36:30.705Z,96374.66
2022-09-15T22:39:03.891Z,96384.56
2022-09-15T22:41:32.630Z,96385.41
2022-09-15T22:44:00.953Z,96387.25
2022-09-15T22:46:29.094Z,96389.94
2022-09-15T22:48:57.504Z,96389.09
2022-09-15T22:51:27.129Z,96388.09
2022-09-15T22:53:57.362Z,96391.78
2022-09-15T22:56:26.221Z,96387.38
2022-09-15T22:58:54.538Z,96384.69
2022-09-15T23:01:23.418Z,96379.31
2022-09-15T23:03:51.646Z,96385.69
2022-09-15T23:06:19.724Z,96380.31
2022-09-15T23:08:52.717Z,96385.69
2022-09-15T23:11:20.909Z,96383.84
2022-09-15T23:13:49.021Z,96383.00
2022-09-15T23:16:17.267Z,96380.31
2022-09-15T23:18:45.394Z,96384.81
2022-09-15T23:21:13.592Z,96381.25
2022-09-15T23:23:43.225Z,96385.69
2022-09-15T23:26:13.195Z,96389.31
2022-09-15T23:28:44.248Z,96401.06
2022-09-15T23:31:12.968Z,96404.63
2022-09-15T23:33:41.230Z,96403.75
2022-09-15T23:36:10.580Z,96412.69
2022-09-15T23:38:38.800Z,96408.28
2022-09-15T23:41:06.997Z,96416.19
2022-09-15T23:43:36.520Z,96419.88
2022-09-15T23:46:05.080Z,96412.78
2022-09-15T23:48:33.176Z,96416.34
2022-09-15T23:51:01.514Z,96419.03
2022-09-15T23:53:29.625Z,96423.53
2022-09-15T23:55:57.826Z,96420.03
2022-09-15T23:58:25.918Z,96422.81
